Station Historical Data
Daily Summary for December 8, 2017 Units:  Metric    English   Both
« Previous Day
Next Day »
Daily Weekly Monthly Yearly Custom
  High: Low: Average:
Temperature: -0.3 °C -4.3 °C -2.2 °C
Dew Point: -6.2 °C -10.3 °C -8.5 °C
Humidity: 84% 49% 63%
Wind Speed: 20.9km/h 0km/h 10km/h
Wind Gust: 35.4km/h - -
Wind- - SW
Pressure: 1016.1 hPa 1012.4 hPa -
Precipitation: 0.25 mm    
Historical Graphs
 
 
Tabular Data for December 8, 2017
Time Temperature Dew Point Pressure Wind Wind Speed Wind Gust Humidity Rainfall Rate (Hourly)
00:00 -2.1 °C -9.9 °C 1015.5 hPa West 8 km/h 16.1 km/h 55% 0 mm
00:05 -2.1 °C -9.9 °C 1015.1 hPa NNW 9.7 km/h 20.9 km/h 55% 0 mm
00:10 -2.1 °C -9.9 °C 1015.5 hPa WSW 6.4 km/h 16.1 km/h 55% 0 mm
00:15 -2 °C -9.8 °C 1015.5 hPa WSW 6.4 km/h 16.1 km/h 55% 0 mm
00:20 -2.1 °C -9.9 °C 1015.1 hPa West 11.3 km/h 16.1 km/h 55% 0 mm
00:25 -2 °C -10.1 °C 1015.1 hPa West 9.7 km/h 16.1 km/h 54% 0 mm
00:30 -1.9 °C -10.3 °C 1015.1 hPa WSW 6.4 km/h 12.9 km/h 53% 0 mm
00:35 -1.9 °C -10.3 °C 1015.1 hPa West 4.8 km/h 14.5 km/h 53% 0 mm
00:40 -1.9 °C -10.3 °C 1015.1 hPa SW 6.4 km/h 20.9 km/h 53% 0 mm
00:45 -1.9 °C -10.3 °C 1015.1 hPa West 9.7 km/h 12.9 km/h 53% 0 mm
00:50 -1.9 °C -10.3 °C 1015.1 hPa WSW 8 km/h 17.7 km/h 53% 0 mm
00:55 -1.9 °C -10.3 °C 1015.1 hPa WSW 8 km/h 19.3 km/h 53% 0 mm
01:00 -1.9 °C -10.3 °C 1015.1 hPa WSW 9.7 km/h 19.3 km/h 53% 0 mm
01:05 -2 °C -10.3 °C 1015.1 hPa WSW 9.7 km/h 22.5 km/h 53% 0 mm
01:10 -2.1 °C -10.1 °C 1015.1 hPa West 14.5 km/h 14.5 km/h 54% 0 mm
01:15 -2.1 °C -9.9 °C 1015.1 hPa West 11.3 km/h 14.5 km/h 55% 0 mm
01:20 -2.1 °C -9.9 °C 1015.1 hPa WSW 4.8 km/h 16.1 km/h 55% 0 mm
01:25 -2.1 °C -9.9 °C 1015.1 hPa WSW 6.4 km/h 16.1 km/h 55% 0 mm
01:30 -2.1 °C -9.7 °C 1015.1 hPa West 6.4 km/h 12.9 km/h 56% 0 mm
01:35 -2.1 °C -9.7 °C 1015.1 hPa WSW 6.4 km/h 11.3 km/h 56% 0 mm
01:40 -2.1 °C -9.7 °C 1015.1 hPa WSW 4.8 km/h 12.9 km/h 56% 0 mm
01:45 -2.1 °C -9.7 °C 1014.8 hPa West 8 km/h 16.1 km/h 56% 0 mm
01:50 -2.2 °C -9.6 °C 1015.1 hPa West 1.6 km/h 11.3 km/h 57% 0 mm
01:55 -2.2 °C -9.6 °C 1015.1 hPa West 6.4 km/h 12.9 km/h 57% 0 mm
02:00 -2.2 °C -9.6 °C 1015.1 hPa WSW 6.4 km/h 12.9 km/h 57% 0 mm
02:05 -2.2 °C -9.3 °C 1015.1 hPa WSW 6.4 km/h 14.5 km/h 58% 0 mm
02:10 -2.2 °C -9.3 °C 1015.1 hPa WSW 9.7 km/h 14.5 km/h 58% 0 mm
02:15 -2.2 °C -9.1 °C 1015.5 hPa SW 8 km/h 16.1 km/h 59% 0 mm
02:20 -2.2 °C -8.9 °C 1015.5 hPa WSW 6.4 km/h 16.1 km/h 60% 0 mm
02:25 -2.2 °C -8.9 °C 1015.5 hPa WNW 6.4 km/h 16.1 km/h 60% 0 mm
02:30 -2.2 °C -8.7 °C 1015.5 hPa West 9.7 km/h 16.1 km/h 61% 0 mm
02:35 -2.2 °C -8.7 °C 1015.5 hPa West 9.7 km/h 19.3 km/h 61% 0 mm
02:40 -2.2 °C -8.6 °C 1015.5 hPa West 9.7 km/h 19.3 km/h 62% 0 mm
02:45 -2.2 °C -8.6 °C 1015.5 hPa West 8 km/h 17.7 km/h 62% 0 mm
02:50 -2.3 °C -8.6 °C 1015.5 hPa WSW 6.4 km/h 11.3 km/h 62% 0 mm
02:55 -2.3 °C -8.4 °C 1015.5 hPa WSW 6.4 km/h 19.3 km/h 63% 0 mm
03:05 -2.4 °C -8.3 °C 1015.5 hPa West 9.7 km/h 20.9 km/h 64% 0 mm
03:10 -2.4 °C -8.1 °C 1015.5 hPa West 6.4 km/h 20.9 km/h 65% 0 mm
03:15 -2.4 °C -8.1 °C 1015.8 hPa West 6.4 km/h 17.7 km/h 65% 0 mm
03:20 -2.6 °C -8.1 °C 1015.8 hPa WSW 11.3 km/h 14.5 km/h 66% 0 mm
03:25 -2.6 °C -8.1 °C 1015.5 hPa West 14.5 km/h 14.5 km/h 66% 0 mm
03:30 -2.7 °C -8.2 °C 1015.8 hPa West 6.4 km/h 14.5 km/h 66% 0 mm
03:35 -2.8 °C -8.3 °C 1015.8 hPa West 3.2 km/h 11.3 km/h 66% 0 mm
03:40 -2.9 °C -8.4 °C 1015.8 hPa West 6.4 km/h 16.1 km/h 66% 0 mm
03:45 -3 °C -8.3 °C 1015.8 hPa West 6.4 km/h 16.1 km/h 67% 0 mm
03:50 -3 °C -8.3 °C 1015.8 hPa West 8 km/h 20.9 km/h 67% 0 mm
03:55 -3.1 °C -8.3 °C 1015.8 hPa West 9.7 km/h 20.9 km/h 67% 0 mm
04:00 -3.1 °C -8.1 °C 1015.8 hPa West 9.7 km/h 17.7 km/h 68% 0 mm
04:05 -3.1 °C -8.1 °C 1015.8 hPa West 8 km/h 17.7 km/h 68% 0 mm
04:10 -3.1 °C -8.2 °C 1015.8 hPa NW 1.6 km/h 12.9 km/h 68% 0 mm
04:15 -3.1 °C -8 °C 1015.8 hPa West 6.4 km/h 14.5 km/h 69% 0 mm
04:20 -3.1 °C -8 °C 1015.8 hPa West 6.4 km/h 16.1 km/h 69% 0 mm
04:25 -3.1 °C -7.9 °C 1015.8 hPa West 8 km/h 17.7 km/h 69% 0 mm
04:35 -3.1 °C -8.2 °C 1015.8 hPa West 4.8 km/h 17.7 km/h 68% 0 mm
04:40 -3.2 °C -8.2 °C 1015.5 hPa West 8 km/h 17.7 km/h 68% 0 mm
04:45 -3.2 °C -8.2 °C 1015.8 hPa WNW 11.3 km/h 24.1 km/h 68% 0 mm
04:50 -3.2 °C -8.4 °C 1015.8 hPa West 11.3 km/h 25.7 km/h 67% 0 mm
04:55 -3.2 °C -8.6 °C 1015.8 hPa West 11.3 km/h 25.7 km/h 66% 0 mm
05:00 -3.3 °C -8.7 °C 1015.8 hPa West 11.3 km/h 25.7 km/h 66% 0 mm
05:05 -3.3 °C -8.7 °C 1015.8 hPa West 11.3 km/h 25.7 km/h 66% 0 mm
05:10 -3.3 °C -8.9 °C 1015.8 hPa West 12.9 km/h 22.5 km/h 65% 0 mm
05:15 -3.3 °C -8.9 °C 1015.8 hPa West 11.3 km/h 19.3 km/h 65% 0 mm
05:20 -3.3 °C -9.4 °C 1015.8 hPa West 11.3 km/h 20.9 km/h 63% 0 mm
05:25 -3.3 °C -9.4 °C 1015.8 hPa West 11.3 km/h 19.3 km/h 63% 0 mm
05:30 -3.4 °C -9.4 °C 1015.8 hPa West 6.4 km/h 14.5 km/h 63% 0 mm
05:35 -3.4 °C -9.4 °C 1015.5 hPa West 8 km/h 14.5 km/h 63% 0 mm
05:45 -3.4 °C -9.6 °C 1015.8 hPa WSW 3.2 km/h 11.3 km/h 62% 0 mm
05:50 -3.3 °C -9.3 °C 1015.8 hPa SSW 3.2 km/h 8 km/h 63% 0 mm
05:55 -3.3 °C -8.9 °C 1015.8 hPa SW 4.8 km/h 9.7 km/h 65% 0 mm
06:00 -3.3 °C -8.3 °C 1015.8 hPa SSW 6.4 km/h 17.7 km/h 68% 0 mm
06:05 -3.6 °C -7.5 °C 1015.8 hPa SW 8 km/h 17.7 km/h 74% 0 mm
06:10 -3.8 °C -7.2 °C 1015.8 hPa WSW 6.4 km/h 14.5 km/h 77% 0 mm
06:15 -4 °C -7.1 °C 1015.8 hPa West 3.2 km/h 9.7 km/h 79% 0 mm
06:20 -4.2 °C -6.9 °C 1015.8 hPa West 3.2 km/h 6.4 km/h 81% 0 mm
06:25 -4.2 °C -6.8 °C 1015.8 hPa Calm   4.8 km/h 82% 0 mm
06:30 -4.3 °C -6.7 °C 1015.8 hPa West 3.2 km/h 9.7 km/h 83% 0 mm
06:35 -4.2 °C -6.7 °C 1015.8 hPa Calm   4.8 km/h 83% 0 mm
06:40 -4.1 °C -6.4 °C 1015.8 hPa NW 3.2 km/h 20.9 km/h 84% 0 mm
06:45 -4 °C -6.3 °C 1015.8 hPa SW 1.6 km/h 12.9 km/h 84% 0 mm
06:50 -3.9 °C -6.2 °C 1015.8 hPa SW 9.7 km/h 16.1 km/h 84% 0 mm
06:55 -3.9 °C -6.2 °C 1015.5 hPa South 4.8 km/h 16.1 km/h 84% 0 mm
07:00 -3.9 °C -6.2 °C 1015.8 hPa SW 9.7 km/h 17.7 km/h 84% 0 mm
07:05 -3.9 °C -6.2 °C 1015.8 hPa SW 9.7 km/h 17.7 km/h 84% 0 mm
07:10 -3.9 °C -6.4 °C 1015.5 hPa SW 8 km/h 14.5 km/h 83% 0 mm
07:15 -3.9 °C -6.4 °C 1015.5 hPa SW 8 km/h 14.5 km/h 83% 0 mm
07:20 -3.9 °C -6.5 °C 1015.5 hPa SW 9.7 km/h 17.7 km/h 82% 0 mm
07:25 -3.9 °C -6.5 °C 1015.5 hPa SW 11.3 km/h 22.5 km/h 82% 0 mm
07:30 -3.8 °C -6.6 °C 1015.8 hPa SW 14.5 km/h 20.9 km/h 81% 0 mm
07:35 -3.9 °C -6.7 °C 1015.8 hPa SW 9.7 km/h 20.9 km/h 81% 0 mm
07:40 -3.9 °C -6.7 °C 1015.8 hPa SW 9.7 km/h 20.9 km/h 81% 0 mm
07:45 -3.9 °C -6.7 °C 1015.8 hPa SSW 9.7 km/h 20.9 km/h 81% 0 mm
07:50 -4 °C -6.8 °C 1015.8 hPa SW 9.7 km/h 16.1 km/h 81% 0 mm
07:55 -4 °C -6.8 °C 1015.8 hPa SE 12.9 km/h 20.9 km/h 81% 0 mm
08:00 -4.1 °C -6.9 °C 1015.5 hPa SSW 11.3 km/h 20.9 km/h 81% 0 mm
08:05 -4.2 °C -6.9 °C 1015.5 hPa South 4.8 km/h 24.1 km/h 81% 0 mm
08:10 -4.2 °C -6.9 °C 1015.8 hPa SSW 11.3 km/h 24.1 km/h 81% 0 mm
08:15 -4.3 °C -6.9 °C 1015.8 hPa SSW 9.7 km/h 20.9 km/h 82% 0 mm
08:20 -4.3 °C -6.9 °C 1015.8 hPa SSW 9.7 km/h 20.9 km/h 82% 0 mm
08:25 -4.3 °C -6.9 °C 1015.8 hPa SSW 9.7 km/h 20.9 km/h 82% 0 mm
08:30 -4.2 °C -6.8 °C 1015.8 hPa SSW 9.7 km/h 20.9 km/h 82% 0 mm
08:35 -4.1 °C -6.7 °C 1015.8 hPa SSW 9.7 km/h 22.5 km/h 82% 0 mm
08:40 -4 °C -6.8 °C 1015.8 hPa SSW 11.3 km/h 22.5 km/h 81% 0 mm
08:45 -3.9 °C -6.7 °C 1015.8 hPa SW 11.3 km/h 27.4 km/h 81% 0 mm
08:50 -3.8 °C -6.6 °C 1016.1 hPa SSW 11.3 km/h 27.4 km/h 81% 0 mm
08:55 -3.7 °C -6.4 °C 1015.8 hPa SW 11.3 km/h 22.5 km/h 81% 0 mm
09:00 -3.7 °C -6.6 °C 1015.8 hPa SW 11.3 km/h 29 km/h 80% 0 mm
09:05 -3.6 °C -6.7 °C 1015.8 hPa South 8 km/h 20.9 km/h 79% 0 mm
09:10 -3.6 °C -6.7 °C 1015.8 hPa SSW 14.5 km/h 27.4 km/h 79% 0 mm
09:15 -3.4 °C -6.7 °C 1015.8 hPa SSE 6.4 km/h 19.3 km/h 78% 0 mm
09:20 -3.4 °C -6.7 °C 1015.5 hPa SSW 12.9 km/h 24.1 km/h 78% 0 mm
09:25 -3.3 °C -6.8 °C 1015.8 hPa SSW 11.3 km/h 24.1 km/h 77% 0 mm
09:30 -3.3 °C -6.8 °C 1015.8 hPa SSW 11.3 km/h 27.4 km/h 77% 0 mm
09:35 -3.3 °C -6.8 °C 1015.5 hPa SSW 12.9 km/h 27.4 km/h 77% 0 mm
09:40 -3.3 °C -6.9 °C 1015.8 hPa WSW 4.8 km/h 27.4 km/h 76% 0 mm
09:45 -3.3 °C -6.9 °C 1015.5 hPa SSW 11.3 km/h 33.8 km/h 76% 0 mm
09:50 -3.3 °C -6.9 °C 1015.5 hPa SSW 8 km/h 19.3 km/h 76% 0 mm
09:55 -3.3 °C -7.1 °C 1015.5 hPa SSW 11.3 km/h 25.7 km/h 75% 0 mm
10:00 -3.3 °C -7.1 °C 1015.8 hPa SSW 11.3 km/h 25.7 km/h 75% 0 mm
10:05 -3.2 °C -7 °C 1015.8 hPa SSW 12.9 km/h 30.6 km/h 75% 0 mm
10:10 -3.2 °C -7 °C 1015.8 hPa SSW 8 km/h 22.5 km/h 75% 0 mm
10:15 -3.2 °C -6.9 °C 1015.8 hPa WSW 12.9 km/h 29 km/h 75% 0 mm
10:20 -3.1 °C -7.1 °C 1015.8 hPa South 8 km/h 19.3 km/h 74% 0 mm
10:25 -3.1 °C -7.1 °C 1015.8 hPa South 8 km/h 22.5 km/h 74% 0 mm
10:30 -3.1 °C -7.2 °C 1015.8 hPa SSW 11.3 km/h 22.5 km/h 73% 0 mm
10:35 -3 °C -7.2 °C 1016.1 hPa SSW 11.3 km/h 24.1 km/h 73% 0 mm
10:40 -3 °C -7.3 °C 1015.8 hPa SSW 12.9 km/h 25.7 km/h 72% 0 mm
10:45 -2.9 °C -7.3 °C 1016.1 hPa SSW 12.9 km/h 27.4 km/h 72% 0 mm
10:50 -2.9 °C -7.2 °C 1015.8 hPa South 12.9 km/h 24.1 km/h 72% 0 mm
10:55 -2.8 °C -7.4 °C 1016.1 hPa SSW 14.5 km/h 30.6 km/h 71% 0 mm
11:00 -2.8 °C -7.4 °C 1016.1 hPa South 16.1 km/h 25.7 km/h 71% 0 mm
11:05 -2.8 °C -7.1 °C 1016.1 hPa SSW 16.1 km/h 30.6 km/h 72% 0 mm
11:10 -2.7 °C -7.4 °C 1015.8 hPa SW 17.7 km/h 30.6 km/h 70% 0 mm
11:15 -2.6 °C -7.4 °C 1015.8 hPa SW 9.7 km/h 30.6 km/h 69% 0 mm
11:20 -2.5 °C -7.4 °C 1015.5 hPa SSW 11.3 km/h 30.6 km/h 69% 0 mm
11:25 -2.4 °C -7.6 °C 1015.8 hPa SW 19.3 km/h 29 km/h 68% 0 mm
11:30 -2.4 °C -7.7 °C 1015.8 hPa WSW 12.9 km/h 20.9 km/h 67% 0 mm
11:35 -2.4 °C -7.9 °C 1015.5 hPa SW 14.5 km/h 32.2 km/h 66% 0 mm
11:40 -2.4 °C -7.9 °C 1015.5 hPa SW 14.5 km/h 32.2 km/h 66% 0 mm
11:50 -2.4 °C -8.1 °C 1015.1 hPa South 11.3 km/h 25.7 km/h 65% 0 mm
11:55 -2.3 °C -8 °C 1015.1 hPa SSW 11.3 km/h 29 km/h 65% 0 mm
12:00 -2.3 °C -8 °C 1015.1 hPa SSW 14.5 km/h 29 km/h 65% 0 mm
12:20 -2.1 °C -8.2 °C 1014.8 hPa SW 14.5 km/h 32.2 km/h 63% 0 mm
12:25 -2.1 °C -7.9 °C 1014.8 hPa SSW 14.5 km/h 33.8 km/h 64% 0 mm
12:30 -1.9 °C -8 °C 1014.8 hPa SSW 14.5 km/h 33.8 km/h 63% 0 mm
12:35 -1.3 °C -7.7 °C 1014.4 hPa South 20.9 km/h 32.2 km/h 62% 0 mm
12:40 -1.4 °C -7.9 °C 1014.4 hPa WSW 17.7 km/h 30.6 km/h 61% 0 mm
12:45 -1.3 °C -7.8 °C 1014.1 hPa SW 12.9 km/h 32.2 km/h 61% 0 mm
12:50 -1.3 °C -8.1 °C 1013.8 hPa SW 16.1 km/h 32.2 km/h 60% 0 mm
12:55 -1.3 °C -8.3 °C 1014.4 hPa SW 16.1 km/h 32.2 km/h 59% 0 mm
13:00 -1.3 °C -8.3 °C 1014.1 hPa SW 16.1 km/h 32.2 km/h 59% 0 mm
13:05 -1.3 °C -8.6 °C 1013.4 hPa SW 16.1 km/h 33.8 km/h 58% 0 mm
13:10 -1.2 °C -8.4 °C 1013.8 hPa WSW 19.3 km/h 30.6 km/h 58% 0 mm
13:15 -1.3 °C -8.7 °C 1013.4 hPa WSW 11.3 km/h 32.2 km/h 57% 0 mm
13:20 -1.2 °C -8.7 °C 1013.4 hPa SW 16.1 km/h 32.2 km/h 57% 0 mm
13:25 -1.3 °C -8.9 °C 1013.8 hPa SW 14.5 km/h 30.6 km/h 56% 0 mm
13:30 -1.1 °C -8.5 °C 1013.4 hPa SW 14.5 km/h 35.4 km/h 57% 0 mm
13:35 -1.1 °C -8.7 °C 1013.4 hPa SW 14.5 km/h 35.4 km/h 56% 0 mm
13:40 -1.1 °C -9 °C 1013.1 hPa West 17.7 km/h 32.2 km/h 55% 0 mm
13:45 -1.1 °C -8.9 °C 1013.1 hPa SW 17.7 km/h 35.4 km/h 55% 0 mm
13:50 -0.9 °C -8.6 °C 1013.4 hPa South 9.7 km/h 30.6 km/h 56% 0 mm
13:55 -0.8 °C -9 °C 1013.4 hPa SW 14.5 km/h 32.2 km/h 54% 0 mm
14:00 -0.9 °C -9.1 °C 1013.1 hPa SSW 14.5 km/h 32.2 km/h 54% 0 mm
14:05 -0.8 °C -9.2 °C 1013.4 hPa SSW 14.5 km/h 29 km/h 53% 0 mm
14:10 -0.7 °C -9.1 °C 1013.4 hPa SW 14.5 km/h 29 km/h 53% 0 mm
14:15 -0.6 °C -9 °C 1013.1 hPa SW 12.9 km/h 25.7 km/h 53% 0 mm
14:20 -0.5 °C -8.9 °C 1012.8 hPa South 12.9 km/h 24.1 km/h 53% 0 mm
14:25 -0.6 °C -9.3 °C 1013.1 hPa SW 8 km/h 30.6 km/h 52% 0 mm
14:30 -0.7 °C -9.6 °C 1013.1 hPa SW 9.7 km/h 27.4 km/h 51% 0 mm
14:35 -0.6 °C -9.4 °C 1013.1 hPa South 16.1 km/h 27.4 km/h 51% 0 mm
14:40 -0.6 °C -9.4 °C 1012.8 hPa SSW 11.3 km/h 30.6 km/h 51% 0 mm
14:45 -0.5 °C -9.4 °C 1013.1 hPa WSW 14.5 km/h 30.6 km/h 51% 0 mm
14:50 -0.5 °C -9.4 °C 1013.1 hPa SSW 9.7 km/h 29 km/h 51% 0 mm
14:55 -0.5 °C -9.7 °C 1013.1 hPa SSW 11.3 km/h 27.4 km/h 50% 0 mm
15:00 -0.6 °C -9.7 °C 1013.4 hPa SW 14.5 km/h 30.6 km/h 50% 0 mm
15:05 -0.5 °C -9.4 °C 1013.1 hPa SW 12.9 km/h 30.6 km/h 51% 0.25 mm
15:10 -0.5 °C -9.9 °C 1013.1 hPa SW 12.9 km/h 29 km/h 49% 0.25 mm
15:15 -0.5 °C -9.9 °C 1013.1 hPa SW 12.9 km/h 29 km/h 49% 0.25 mm
15:20 -0.4 °C -9.6 °C 1012.8 hPa SW 11.3 km/h 24.1 km/h 50% 0.25 mm
15:25 -0.3 °C -9.3 °C 1012.8 hPa SW 8 km/h 17.7 km/h 51% 0.25 mm
15:30 -0.4 °C -9.3 °C 1012.4 hPa SW 12.9 km/h 25.7 km/h 51% 0.25 mm
15:35 -0.5 °C -9.2 °C 1012.8 hPa SW 14.5 km/h 20.9 km/h 52% 0.25 mm
15:40 -0.5 °C -9.2 °C 1013.1 hPa SW 11.3 km/h 29 km/h 52% 0.25 mm
15:45 -0.5 °C -9.2 °C 1012.8 hPa SW 14.5 km/h 29 km/h 52% 0.25 mm
15:50 -0.5 °C -9.2 °C 1012.4 hPa SW 11.3 km/h 25.7 km/h 52% 0.25 mm
15:55 -0.6 °C -9 °C 1012.8 hPa WSW 6.4 km/h 24.1 km/h 53% 0.25 mm
16:00 -0.6 °C -9 °C 1012.8 hPa SW 16.1 km/h 25.7 km/h 53% 0.25 mm
16:05 -0.6 °C -9.2 °C 1012.8 hPa SW 12.9 km/h 32.2 km/h 52% 0 mm
16:10 -0.6 °C -9.2 °C 1012.8 hPa WSW 16.1 km/h 32.2 km/h 52% 0 mm
16:20 -0.7 °C -9.1 °C 1013.1 hPa SW 14.5 km/h 29 km/h 53% 0 mm
16:25 -0.7 °C -9.1 °C 1012.8 hPa SW 14.5 km/h 33.8 km/h 53% 0 mm
16:30 -0.6 °C -8.8 °C 1013.1 hPa SW 14.5 km/h 33.8 km/h 54% 0 mm
16:35 -0.6 °C -8.8 °C 1013.1 hPa WSW 6.4 km/h 22.5 km/h 54% 0 mm
16:40 -0.7 °C -8.6 °C 1013.1 hPa SW 14.5 km/h 25.7 km/h 55% 0 mm
16:45 -0.7 °C -8.4 °C 1013.1 hPa SW 14.5 km/h 30.6 km/h 56% 0 mm
16:50 -0.6 °C -8.3 °C 1013.1 hPa WSW 14.5 km/h 25.7 km/h 56% 0 mm
16:55 -0.7 °C -8.2 °C 1012.8 hPa SW 9.7 km/h 20.9 km/h 57% 0 mm
17:00 -0.9 °C -8.8 °C 1013.1 hPa WSW 8 km/h 16.1 km/h 55% 0 mm
17:05 -0.9 °C -9.1 °C 1012.8 hPa SSW 6.4 km/h 24.1 km/h 54% 0 mm
17:10 -0.9 °C -9.1 °C 1012.8 hPa SSW 11.3 km/h 24.1 km/h 54% 0 mm
17:20 -0.8 °C -8.5 °C 1012.8 hPa SW 9.7 km/h 24.1 km/h 56% 0 mm
17:25 -0.9 °C -9.1 °C 1012.4 hPa SW 9.7 km/h 25.7 km/h 54% 0 mm
17:30 -1.1 °C -9.2 °C 1012.4 hPa SSW 9.7 km/h 25.7 km/h 54% 0 mm
17:35 -1 °C -9.2 °C 1012.8 hPa SW 11.3 km/h 27.4 km/h 54% 0 mm
17:40 -1.1 °C -9.2 °C 1012.8 hPa SW 9.7 km/h 20.9 km/h 54% 0 mm
17:45 -1 °C -9.2 °C 1013.1 hPa SSW 9.7 km/h 20.9 km/h 54% 0 mm
17:50 -1 °C -8.9 °C 1013.1 hPa SSW 9.7 km/h 19.3 km/h 55% 0 mm
17:55 -1 °C -9.2 °C 1013.4 hPa SSE 9.7 km/h 20.9 km/h 54% 0 mm
18:00 -0.9 °C -9.1 °C 1013.4 hPa South 12.9 km/h 14.5 km/h 54% 0 mm
18:05 -0.9 °C -9.1 °C 1013.4 hPa South 9.7 km/h 16.1 km/h 54% 0 mm
18:10 -0.9 °C -8.9 °C 1013.4 hPa SW 12.9 km/h 16.1 km/h 55% 0 mm
18:15 -0.9 °C -8.9 °C 1013.4 hPa SSW 8 km/h 17.7 km/h 55% 0 mm
18:20 -1 °C -8.9 °C 1013.4 hPa SSW 9.7 km/h 19.3 km/h 55% 0 mm
18:25 -1.1 °C -8.9 °C 1013.4 hPa SSW 8 km/h 19.3 km/h 55% 0 mm
18:30 -1.1 °C -8.9 °C 1013.4 hPa SSW 8 km/h 17.7 km/h 55% 0 mm
18:35 -1.1 °C -8.7 °C 1013.4 hPa SSW 8 km/h 17.7 km/h 56% 0 mm
18:40 -1.1 °C -8.7 °C 1013.4 hPa SSW 8 km/h 22.5 km/h 56% 0 mm
18:45 -1.1 °C -8.9 °C 1013.4 hPa SW 14.5 km/h 20.9 km/h 55% 0 mm
18:50 -1.2 °C -9.1 °C 1013.4 hPa SSW 8 km/h 20.9 km/h 55% 0 mm
18:55 -1.3 °C -9.4 °C 1013.1 hPa SSW 8 km/h 17.7 km/h 54% 0 mm
19:00 -1.3 °C -9.2 °C 1013.4 hPa WSW 4.8 km/h 27.4 km/h 55% 0 mm
19:05 -1.3 °C -9.4 °C 1013.4 hPa SW 14.5 km/h 17.7 km/h 54% 0 mm
19:10 -1.3 °C -9.2 °C 1013.4 hPa SSW 6.4 km/h 24.1 km/h 55% 0 mm
19:15 -1.4 °C -9.3 °C 1013.1 hPa SSW 8 km/h 22.5 km/h 55% 0 mm
19:20 -1.4 °C -9.3 °C 1013.1 hPa SW 4.8 km/h 20.9 km/h 55% 0 mm
19:25 -1.5 °C -9.4 °C 1013.1 hPa SSW 9.7 km/h 20.9 km/h 55% 0 mm
19:30 -1.6 °C -9.7 °C 1013.1 hPa SSW 8 km/h 19.3 km/h 54% 0 mm
19:35 -1.6 °C -9.7 °C 1013.1 hPa SSW 9.7 km/h 19.3 km/h 54% 0 mm
19:40 -1.7 °C -9.6 °C 1012.8 hPa SSW 8 km/h 17.7 km/h 55% 0 mm
19:45 -1.8 °C -9.4 °C 1013.1 hPa SSW 9.7 km/h 17.7 km/h 56% 0 mm
19:50 -1.8 °C -9.4 °C 1013.4 hPa SSW 6.4 km/h 20.9 km/h 56% 0 mm
19:55 -1.8 °C -9.4 °C 1013.1 hPa WSW 11.3 km/h 19.3 km/h 56% 0 mm
20:00 -1.8 °C -9.4 °C 1013.1 hPa SSW 9.7 km/h 19.3 km/h 56% 0 mm
20:05 -1.8 °C -9.2 °C 1013.1 hPa SSW 11.3 km/h 22.5 km/h 57% 0 mm
20:10 -1.9 °C -9.3 °C 1013.4 hPa West 11.3 km/h 20.9 km/h 57% 0 mm
20:15 -1.9 °C -9.5 °C 1013.8 hPa WSW 14.5 km/h 22.5 km/h 56% 0 mm
20:20 -1.9 °C -9.3 °C 1013.1 hPa South 14.5 km/h 24.1 km/h 57% 0 mm
20:25 -1.9 °C -9.6 °C 1012.8 hPa South 6.4 km/h 22.5 km/h 56% 0 mm
20:30 -1.9 °C -9.3 °C 1012.8 hPa SSW 9.7 km/h 22.5 km/h 57% 0 mm
20:35 -2 °C -9.4 °C 1013.4 hPa SSW 9.7 km/h 22.5 km/h 57% 0 mm
20:40 -2.1 °C -9.4 °C 1013.1 hPa SSW 9.7 km/h 22.5 km/h 57% 0 mm
20:45 -2.1 °C -9.5 °C 1013.4 hPa SSW 9.7 km/h 20.9 km/h 57% 0 mm
20:50 -2.1 °C -9.3 °C 1013.4 hPa SSW 8 km/h 22.5 km/h 58% 0 mm
20:55 -2.1 °C -9.3 °C 1013.4 hPa SSW 8 km/h 22.5 km/h 58% 0 mm
21:00 -2.1 °C -9.5 °C 1013.4 hPa SSW 11.3 km/h 24.1 km/h 57% 0 mm
21:05 -2.2 °C -9.3 °C 1013.4 hPa SSW 9.7 km/h 24.1 km/h 58% 0 mm
21:10 -2.1 °C -9.3 °C 1013.4 hPa South 8 km/h 17.7 km/h 58% 0 mm
21:15 -2.1 °C -9.3 °C 1013.4 hPa SSE 4.8 km/h 22.5 km/h 58% 0 mm
21:20 -2.1 °C -9.3 °C 1013.1 hPa South 9.7 km/h 24.1 km/h 58% 0 mm
21:25 -2.2 °C -9.6 °C 1013.4 hPa SSE 12.9 km/h 25.7 km/h 57% 0 mm
21:30 -2.1 °C -9.5 °C 1013.4 hPa South 12.9 km/h 20.9 km/h 57% 0 mm
21:35 -2.2 °C -9.3 °C 1013.8 hPa SSW 11.3 km/h 25.7 km/h 58% 0 mm
21:40 -2.2 °C -9.3 °C 1013.8 hPa SSW 11.3 km/h 25.7 km/h 58% 0 mm
21:45 -2.2 °C -9.3 °C 1013.8 hPa SSW 11.3 km/h 20.9 km/h 58% 0 mm
21:50 -2.2 °C -9.4 °C 1013.4 hPa SSW 9.7 km/h 20.9 km/h 58% 0 mm
21:55 -2.2 °C -9.4 °C 1013.4 hPa SSW 12.9 km/h 19.3 km/h 58% 0 mm
22:00 -2.2 °C -9.2 °C 1013.4 hPa SSW 14.5 km/h 22.5 km/h 59% 0 mm
22:05 -2.2 °C -9.4 °C 1013.4 hPa South 9.7 km/h 19.3 km/h 58% 0 mm
22:10 -2.2 °C -9.2 °C 1013.4 hPa SSW 9.7 km/h 19.3 km/h 59% 0 mm
22:20 -2.2 °C -9.2 °C 1013.4 hPa SSW 11.3 km/h 17.7 km/h 59% 0 mm
22:25 -2.2 °C -9.4 °C 1013.1 hPa SSW 11.3 km/h 20.9 km/h 58% 0 mm
22:35 -2.2 °C -9.2 °C 1013.1 hPa SSW 4.8 km/h 22.5 km/h 59% 0 mm
22:40 -2.2 °C -9.2 °C 1013.1 hPa SSW 8 km/h 22.5 km/h 59% 0 mm
22:45 -2.2 °C -8.9 °C 1013.1 hPa SSW 6.4 km/h 16.1 km/h 60% 0 mm
22:50 -2.3 °C -9 °C 1013.1 hPa SSW 6.4 km/h 14.5 km/h 60% 0 mm
22:55 -2.3 °C -9 °C 1013.4 hPa SSW 8 km/h 14.5 km/h 60% 0 mm
23:00 -2.3 °C -9 °C 1013.4 hPa SSW 8 km/h 17.7 km/h 60% 0 mm
23:05 -2.3 °C -9 °C 1013.4 hPa South 4.8 km/h 14.5 km/h 60% 0 mm
23:10 -2.3 °C -8.8 °C 1013.4 hPa SSW 3.2 km/h 11.3 km/h 61% 0 mm
23:15 -2.3 °C -8.8 °C 1013.1 hPa SSW 8 km/h 12.9 km/h 61% 0 mm
23:20 -2.2 °C -8.7 °C 1013.1 hPa SSW 6.4 km/h 16.1 km/h 61% 0 mm
23:25 -2.2 °C -8.5 °C 1013.1 hPa SSW 8 km/h 16.1 km/h 62% 0 mm
23:30 -2.2 °C -8.5 °C 1013.1 hPa SSW 8 km/h 14.5 km/h 62% 0 mm
23:35 -2.1 °C -8.6 °C 1013.1 hPa SSW 4.8 km/h 12.9 km/h 61% 0 mm
23:40 -2.1 °C -8.6 °C 1013.1 hPa South 12.9 km/h 19.3 km/h 61% 0 mm
23:45 -2.1 °C -8.6 °C 1013.1 hPa South 9.7 km/h 14.5 km/h 61% 0 mm
23:50 -2.1 °C -8.6 °C 1013.1 hPa South 4.8 km/h 20.9 km/h 61% 0 mm
23:55 -2.1 °C -8.6 °C 1013.1 hPa SSW 8 km/h 20.9 km/h 61% 0 mm
Buffalo, New York, USA
Compliments of Weather Underground - 2.25 mb